Time;durP1;ratioP1;P1;durP2;ratioP2;P2;SDS_P1;SDS_P2;PMS_P1;PMS_P2;Temp;Humidity;BMP_temperature;BMP_pressure;BME280_temperature;BME280_humidity;BME280_pressure;Samples;Min_cycle;Max_cycle;Signal;HPM_P1;HPM_P2
2023/08/14 00:01:39;;;;;;;0.50;0.50;;;;;;;20.35;98.72;95621.09;4348589;32;20241;-67
2023/08/14 00:04:05;;;;;;;0.40;0.40;;;;;;;20.43;98.27;95612.06;4330802;32;20189;-67
2023/08/14 00:06:30;;;;;;;0.83;0.10;;;;;;;20.38;98.53;95615.03;4336140;32;20211;-67
2023/08/14 00:08:55;;;;;;;0.73;0.40;;;;;;;20.40;98.22;95623.53;4357975;32;20211;-68
2023/08/14 00:11:21;;;;;;;0.33;0.30;;;;;;;20.39;98.41;95607.72;4341329;32;20193;-66
2023/08/14 00:13:54;;;;;;;0.37;0.37;;;;;;;20.41;98.16;95616.25;4357345;32;20189;-68
2023/08/14 00:16:20;;;;;;;0.33;0.33;;;;;;;20.38;98.22;95614.22;4338756;32;20237;-68
2023/08/14 00:18:46;;;;;;;0.23;0.23;;;;;;;20.33;98.85;95611.78;4334935;32;20218;-67
2023/08/14 00:21:12;;;;;;;0.40;0.40;;;;;;;20.30;98.99;95618.66;4323692;32;20253;-68
2023/08/14 00:23:37;;;;;;;2.73;0.50;;;;;;;20.32;98.93;95602.94;4320558;32;20185;-68
2023/08/14 00:26:03;;;;;;;0.00;0.00;;;;;;;20.43;98.49;95603.19;4341393;32;20236;-68
2023/08/14 00:28:28;;;;;;;0.20;0.20;;;;;;;20.43;98.14;95600.50;4340195;32;20200;-68
2023/08/14 00:30:53;;;;;;;0.10;0.10;;;;;;;20.42;98.28;95599.72;4353082;32;20205;-67
2023/08/14 00:33:19;;;;;;;0.10;0.10;;;;;;;20.38;98.26;95588.06;4347722;32;20261;-65
2023/08/14 00:35:44;;;;;;;0.57;0.20;;;;;;;20.33;98.25;95585.63;4333652;32;20200;-68
2023/08/14 00:38:09;;;;;;;0.63;0.20;;;;;;;20.33;98.42;95577.53;4344822;32;20185;-69
2023/08/14 00:40:35;;;;;;;0.50;0.50;;;;;;;20.31;98.54;95577.09;4343011;32;20189;-67
2023/08/14 00:43:00;;;;;;;0.20;0.20;;;;;;;20.29;98.47;95578.59;4344861;32;20292;-67
2023/08/14 00:45:26;;;;;;;0.20;0.20;;;;;;;20.26;98.49;95569.28;4349571;32;20233;-68
2023/08/14 00:47:51;;;;;;;0.13;0.13;;;;;;;20.20;98.87;95565.28;4336696;32;20181;-68
2023/08/14 00:50:18;;;;;;;0.10;0.10;;;;;;;20.14;98.95;95572.06;4354063;32;20185;-67
2023/08/14 00:52:46;;;;;;;0.27;0.23;;;;;;;20.23;98.63;95559.19;4330550;32;20197;-67
2023/08/14 00:55:22;;;;;;;1.00;0.57;;;;;;;20.29;98.26;95560.50;4339457;32;20190;-68
2023/08/14 00:57:48;;;;;;;0.10;0.10;;;;;;;20.16;98.75;95553.66;4337846;32;20195;-67
2023/08/14 01:00:14;;;;;;;0.20;0.20;;;;;;;20.12;99.06;95553.56;4368330;32;20203;-67
2023/08/14 01:02:41;;;;;;;0.40;0.40;;;;;;;20.12;99.07;95548.19;4358391;32;20287;-67
2023/08/14 01:05:06;;;;;;;0.37;0.37;;;;;;;20.12;99.31;95547.41;4342666;32;20231;-67
2023/08/14 01:07:32;;;;;;;0.97;0.30;;;;;;;20.08;99.43;95552.69;4347875;32;20220;-67
2023/08/14 01:09:57;;;;;;;0.10;0.10;;;;;;;20.05;99.56;95553.38;4361835;32;20192;-67
2023/08/14 01:12:30;;;;;;;0.20;0.20;;;;;;;20.16;98.97;95540.94;4352915;32;20181;-67
2023/08/14 01:15:01;;;;;;;0.30;0.30;;;;;;;20.16;98.85;95548.28;4344456;32;20192;-66
2023/08/14 01:17:31;;;;;;;0.10;0.10;;;;;;;20.05;99.50;95542.59;4337792;32;20203;-66
2023/08/14 01:19:57;;;;;;;0.50;0.50;;;;;;;20.13;98.91;95543.56;4348763;32;20227;-68
2023/08/14 01:22:47;;;;;;;0.20;0.20;;;;;;;20.07;99.42;95539.56;4339602;32;20327;-66
2023/08/14 01:25:22;;;;;;;0.40;0.40;;;;;;;20.09;99.56;95540.00;4353658;32;20189;-67
2023/08/14 01:27:49;;;;;;;0.20;0.20;;;;;;;20.11;99.11;95540.44;4359353;32;20254;-67
2023/08/14 01:30:14;;;;;;;0.20;0.20;;;;;;;20.06;99.25;95538.00;4335811;32;20276;-68
2023/08/14 01:32:39;;;;;;;0.87;0.37;;;;;;;20.01;99.54;95530.19;4353590;32;20224;-69
2023/08/14 01:35:06;;;;;;;0.53;0.53;;;;;;;19.99;99.78;95525.13;4342588;32;20185;-69
2023/08/14 01:37:36;;;;;;;0.20;0.20;;;;;;;20.00;99.45;95521.31;4342419;32;20287;-69
2023/08/14 01:40:09;;;;;;;0.40;0.40;;;;;;;20.00;99.55;95518.63;4335936;32;20201;-68
2023/08/14 01:42:38;;;;;;;0.20;0.20;;;;;;;20.04;99.30;95516.03;4331100;32;20193;-69
2023/08/14 01:45:24;;;;;;;0.47;0.47;;;;;;;19.96;99.06;95525.03;4343896;32;20193;-68
2023/08/14 01:47:52;;;;;;;1.97;0.60;;;;;;;19.94;99.65;95517.34;4334150;32;20196;-63
2023/08/14 01:50:18;;;;;;;0.30;0.30;;;;;;;19.93;99.75;95517.69;4349643;32;20181;-67
2023/08/14 01:52:43;;;;;;;0.20;0.20;;;;;;;19.89;99.43;95522.97;4333031;32;20197;-67
2023/08/14 01:55:09;;;;;;;0.30;0.30;;;;;;;19.92;99.35;95522.28;4357638;32;20307;-67
2023/08/14 01:57:34;;;;;;;0.27;0.27;;;;;;;19.95;99.34;95520.81;4357738;32;20248;-67
2023/08/14 01:59:59;;;;;;;0.23;0.23;;;;;;;19.99;98.76;95521.66;4356487;32;20225;-67
2023/08/14 02:02:25;;;;;;;0.10;0.10;;;;;;;19.97;98.89;95521.22;4339096;32;20193;-66
2023/08/14 02:04:50;;;;;;;1.10;0.70;;;;;;;19.95;98.76;95520.81;4347365;32;20225;-66
2023/08/14 02:07:16;;;;;;;0.30;0.30;;;;;;;19.95;99.28;95526.97;4357481;32;20256;-67
2023/08/14 02:09:42;;;;;;;0.10;0.10;;;;;;;19.95;99.11;95521.59;4336338;32;20204;-67
2023/08/14 02:12:07;;;;;;;0.30;0.30;;;;;;;19.95;98.47;95526.97;4353221;32;20208;-67
2023/08/14 02:14:32;;;;;;;0.30;0.30;;;;;;;20.00;98.20;95531.31;4344921;32;20278;-67
2023/08/14 02:16:57;;;;;;;0.10;0.10;;;;;;;19.91;98.75;95536.88;4343074;32;20185;-67
2023/08/14 02:19:23;;;;;;;0.00;0.00;;;;;;;19.90;98.61;95529.94;4343137;32;20185;-67
2023/08/14 02:21:49;;;;;;;0.10;0.10;;;;;;;19.93;98.34;95528.47;4350284;32;20261;-67
2023/08/14 02:24:14;;;;;;;0.10;0.10;;;;;;;19.90;98.37;95540.69;4337825;32;20208;-67
2023/08/14 02:26:40;;;;;;;0.30;0.30;;;;;;;19.94;98.27;95543.50;4354281;32;20188;-67
2023/08/14 02:29:05;;;;;;;0.27;0.27;;;;;;;19.83;98.98;95535.91;4338804;32;20201;-67
2023/08/14 02:31:31;;;;;;;0.10;0.10;;;;;;;19.84;98.77;95537.47;4351348;32;20245;-67
2023/08/14 02:34:00;;;;;;;0.20;0.20;;;;;;;19.93;98.38;95537.31;4342434;32;20193;-66
2023/08/14 02:36:26;;;;;;;0.00;0.00;;;;;;;19.87;98.96;95536.78;4354453;32;20182;-67
2023/08/14 02:38:52;;;;;;;0.10;0.10;;;;;;;19.90;98.44;95530.72;4351510;32;20276;-67
2023/08/14 02:41:18;;;;;;;0.13;0.13;;;;;;;19.92;97.96;95526.87;4343535;32;20190;-67
2023/08/14 02:43:43;;;;;;;0.57;0.50;;;;;;;19.99;97.66;95525.13;4333096;32;20199;-67
2023/08/14 02:46:08;;;;;;;0.20;0.20;;;;;;;19.86;98.31;95531.75;4329664;32;23451;-67
2023/08/14 02:48:34;;;;;;;0.17;0.10;;;;;;;19.85;98.49;95528.28;4337566;32;20236;-67
2023/08/14 02:51:00;;;;;;;0.67;0.67;;;;;;;19.89;98.40;95528.38;4339440;32;20224;-67
2023/08/14 02:53:25;;;;;;;0.10;0.10;;;;;;;19.93;98.00;95544.63;4340804;32;20219;-67
2023/08/14 02:55:52;;;;;;;0.10;0.10;;;;;;;19.85;98.52;95547.13;4345773;32;20185;-66
2023/08/14 02:58:18;;;;;;;0.37;0.37;;;;;;;19.80;98.94;95544.69;4342774;32;20210;-67
2023/08/14 03:00:47;;;;;;;0.30;0.30;;;;;;;19.88;98.74;95545.66;4348756;32;20265;-67
2023/08/14 03:03:13;;;;;;;0.20;0.20;;;;;;;19.76;99.28;95546.50;4345306;32;20204;-67
2023/08/14 03:05:39;;;;;;;0.20;0.20;;;;;;;19.68;99.57;95549.37;4335739;32;20193;-67
2023/08/14 03:08:05;;;;;;;0.80;0.53;;;;;;;19.73;99.33;95547.22;4331010;32;20185;-67
2023/08/14 03:10:30;;;;;;;1.07;0.30;;;;;;;19.78;99.22;95549.63;4342602;32;20195;-67
2023/08/14 03:12:57;;;;;;;0.73;0.73;;;;;;;19.78;99.24;95551.53;4343135;32;20185;-67
2023/08/14 03:15:23;;;;;;;0.20;0.20;;;;;;;19.84;98.87;95563.63;4335158;32;20221;-66
2023/08/14 03:17:49;;;;;;;0.40;0.40;;;;;;;19.81;99.20;95567.78;4349868;32;20193;-67
2023/08/14 03:20:14;;;;;;;0.67;0.67;;;;;;;19.84;99.03;95561.72;4364720;32;20235;-67
2023/08/14 03:22:40;;;;;;;0.23;0.23;;;;;;;19.87;98.68;95558.34;4337665;32;20279;-67
2023/08/14 03:25:05;;;;;;;0.20;0.20;;;;;;;19.85;98.68;95557.09;4330399;32;20254;-66
2023/08/14 03:27:31;;;;;;;0.40;0.40;;;;;;;19.80;99.03;95554.66;4341542;32;20197;-67
2023/08/14 03:29:56;;;;;;;0.40;0.40;;;;;;;19.69;99.27;95557.09;4338548;32;20188;-67
2023/08/14 03:32:21;;;;;;;0.53;0.53;;;;;;;19.75;99.49;95553.00;4336755;32;20181;-67
2023/08/14 03:34:47;;;;;;;0.77;0.77;;;;;;;19.75;99.15;95539.53;4346623;32;20254;-67
2023/08/14 03:37:12;;;;;;;0.40;0.40;;;;;;;19.74;99.23;95543.41;4344491;32;20225;-67
2023/08/14 03:39:37;;;;;;;0.43;0.43;;;;;;;19.84;98.82;95532.09;4349693;32;20200;-67
2023/08/14 03:42:04;;;;;;;0.40;0.40;;;;;;;19.83;98.50;95535.91;4346917;32;20186;-66
2023/08/14 03:44:29;;;;;;;0.30;0.30;;;;;;;19.90;98.35;95535.31;4356414;32;20185;-67
2023/08/14 03:46:55;;;;;;;0.00;0.00;;;;;;;19.94;98.05;95535.41;4340811;32;20199;-66
2023/08/14 03:49:20;;;;;;;0.63;0.63;;;;;;;19.96;98.06;95533.13;4325730;32;20220;-66
2023/08/14 03:51:45;;;;;;;0.20;0.20;;;;;;;19.98;97.97;95520.09;4355230;32;20181;-67
2023/08/14 03:54:11;;;;;;;0.77;0.30;;;;;;;19.96;98.21;95527.75;4353420;32;20180;-67
2023/08/14 03:56:36;;;;;;;0.40;0.40;;;;;;;19.99;98.11;95516.28;4338378;32;20189;-67
2023/08/14 03:59:02;;;;;;;0.43;0.17;;;;;;;20.00;97.80;95523.22;4353672;32;20186;-67
2023/08/14 04:01:28;;;;;;;0.60;0.60;;;;;;;19.90;98.24;95525.31;4340060;32;20189;-67
2023/08/14 04:03:54;;;;;;;0.50;0.50;;;;;;;19.98;97.95;95514.72;4352796;32;20225;-66
2023/08/14 04:06:19;;;;;;;0.57;0.57;;;;;;;19.98;97.87;95520.09;4357577;32;20185;-67
2023/08/14 04:08:44;;;;;;;0.20;0.20;;;;;;;19.93;98.24;95525.75;4350930;32;20200;-67
2023/08/14 04:11:11;;;;;;;0.50;0.50;;;;;;;19.92;98.43;95540.34;4335089;32;20192;-67
2023/08/14 04:13:36;;;;;;;0.37;0.37;;;;;;;19.85;99.03;95539.03;4351901;32;20211;-67
2023/08/14 04:16:03;;;;;;;1.50;0.77;;;;;;;19.92;98.83;95532.28;4339087;32;20189;-67
2023/08/14 04:18:29;;;;;;;1.70;0.50;;;;;;;19.86;99.01;95531.75;4328385;32;20189;-66
2023/08/14 04:20:55;;;;;;;0.57;0.50;;;;;;;19.88;99.05;95530.28;4338735;32;20185;-66
2023/08/14 04:23:23;;;;;;;0.30;0.30;;;;;;;19.75;99.57;95525.31;4352728;32;20189;-66
2023/08/14 04:25:49;;;;;;;0.47;0.47;;;;;;;19.72;99.82;95520.63;4342946;32;20185;-67
2023/08/14 04:28:14;;;;;;;0.00;0.00;;;;;;;19.69;100.00;95519.41;4353036;32;20234;-67
2023/08/14 04:30:39;;;;;;;0.40;0.40;;;;;;;19.72;99.98;95526.00;4355863;32;20284;-68
2023/08/14 04:33:04;;;;;;;0.50;0.50;;;;;;;19.77;99.83;95523.03;4354340;32;20189;-67
2023/08/14 04:35:30;;;;;;;0.30;0.30;;;;;;;19.68;100.00;95517.84;4335487;32;20182;-67
2023/08/14 04:37:55;;;;;;;0.77;0.73;;;;;;;19.61;100.00;95523.03;4316563;33;20186;-67
2023/08/14 04:40:20;;;;;;;0.30;0.30;;;;;;;19.66;100.00;95522.00;4340957;32;20216;-66
2023/08/14 04:42:46;;;;;;;0.50;0.50;;;;;;;19.72;100.00;95513.34;4351874;32;20196;-68
2023/08/14 04:45:11;;;;;;;3.70;0.43;;;;;;;19.78;99.79;95508.44;4350094;32;20215;-68
2023/08/14 04:47:37;;;;;;;1.07;1.07;;;;;;;19.82;99.52;95517.41;4333063;32;20190;-67
2023/08/14 04:50:04;;;;;;;0.20;0.20;;;;;;;19.81;99.62;95515.84;4366875;32;20254;-67
2023/08/14 04:52:29;;;;;;;0.53;0.53;;;;;;;19.78;99.94;95520.00;4335377;32;20288;-68
2023/08/14 04:54:55;;;;;;;0.47;0.47;;;;;;;19.77;100.00;95529.22;4346091;32;20212;-67
2023/08/14 04:57:20;;;;;;;1.00;0.90;;;;;;;19.77;100.00;95526.53;4337687;32;20181;-66
2023/08/14 04:59:45;;;;;;;0.23;0.23;;;;;;;19.85;99.97;95520.19;4339989;32;20203;-67
2023/08/14 05:02:11;;;;;;;0.33;0.33;;;;;;;19.86;99.84;95523.66;4358477;32;20227;-67
2023/08/14 05:04:36;;;;;;;0.60;0.60;;;;;;;19.95;99.27;95534.28;4340683;32;20216;-67
2023/08/14 05:07:01;;;;;;;0.83;0.83;;;;;;;19.98;98.99;95526.25;4330566;32;20177;-67
2023/08/14 05:09:27;;;;;;;0.47;0.47;;;;;;;19.85;99.54;95533.66;4344035;32;20261;-66
2023/08/14 05:11:52;;;;;;;0.33;0.33;;;;;;;19.93;99.25;95531.94;4332468;32;20270;-66
2023/08/14 05:14:20;;;;;;;0.40;0.40;;;;;;;20.00;98.86;95539.38;4348298;32;20173;-67
2023/08/14 05:16:46;;;;;;;0.53;0.53;;;;;;;20.09;98.39;95554.25;4334639;32;20193;-67
2023/08/14 05:19:11;;;;;;;0.10;0.10;;;;;;;20.07;98.47;95558.44;4339597;32;20220;-67
2023/08/14 05:21:36;;;;;;;0.50;0.50;;;;;;;20.09;98.25;95575.81;4325908;33;20185;-67
2023/08/14 05:24:02;;;;;;;0.53;0.53;;;;;;;20.16;97.23;95591.38;4343377;32;20193;-67
2023/08/14 05:26:27;;;;;;;0.30;0.30;;;;;;;20.13;97.23;95579.38;4343198;32;20219;-67
2023/08/14 05:28:53;;;;;;;0.20;0.20;;;;;;;20.03;97.51;95582.56;4355310;32;20272;-67
2023/08/14 05:31:18;;;;;;;0.53;0.53;;;;;;;20.07;97.80;95588.06;4341187;32;20188;-67
2023/08/14 05:33:43;;;;;;;0.27;0.27;;;;;;;20.10;98.20;95584.69;4339719;32;20193;-67
2023/08/14 05:36:08;;;;;;;0.63;0.63;;;;;;;20.14;97.36;95580.94;4327574;32;20186;-67
2023/08/14 05:38:34;;;;;;;0.20;0.20;;;;;;;20.17;97.90;95587.53;4338586;32;20203;-67
2023/08/14 05:40:59;;;;;;;0.60;0.60;;;;;;;20.20;97.94;95601.09;4349339;32;20207;-67
2023/08/14 05:43:24;;;;;;;1.50;1.07;;;;;;;20.26;97.73;95590.84;4347324;32;20173;-67
2023/08/14 05:45:50;;;;;;;0.37;0.37;;;;;;;20.26;97.60;95596.22;4339913;32;20182;-65
2023/08/14 05:48:15;;;;;;;0.53;0.53;;;;;;;20.21;96.32;95601.88;4337372;32;20181;-67
2023/08/14 05:50:41;;;;;;;0.73;0.73;;;;;;;20.30;95.77;95593.63;4349977;32;20181;-67
2023/08/14 05:53:07;;;;;;;1.60;0.80;;;;;;;20.37;95.33;95601.91;4355307;32;20235;-68
2023/08/14 05:55:38;;;;;;;0.67;0.67;;;;;;;20.34;95.07;95597.97;4340717;32;20286;-67
2023/08/14 05:58:04;;;;;;;0.20;0.20;;;;;;;20.45;94.83;95593.63;4357005;32;20272;-67
2023/08/14 06:00:30;;;;;;;0.40;0.40;;;;;;;20.46;94.54;95600.59;4332953;32;20232;-67
2023/08/14 06:02:56;;;;;;;0.30;0.30;;;;;;;20.55;94.53;95593.13;4336154;32;20197;-68
2023/08/14 06:05:21;;;;;;;0.23;0.23;;;;;;;20.57;95.21;95592.78;4346495;32;20208;-67
2023/08/14 06:07:48;;;;;;;0.97;0.90;;;;;;;20.63;94.83;95593.25;4351861;32;20189;-68
2023/08/14 06:10:13;;;;;;;0.50;0.50;;;;;;;20.64;93.74;95584.03;4357380;32;20204;-67
2023/08/14 06:12:39;;;;;;;0.20;0.20;;;;;;;20.69;92.92;95589.94;4357782;32;20211;-67
2023/08/14 06:15:05;;;;;;;0.77;0.77;;;;;;;20.79;92.62;95591.31;4358262;32;20248;-67
2023/08/14 06:17:32;;;;;;;0.30;0.30;;;;;;;20.75;92.04;95588.56;4356629;32;20199;-68
2023/08/14 06:19:58;;;;;;;0.50;0.37;;;;;;;20.82;92.10;95594.09;4357296;32;20199;-67
2023/08/14 06:22:23;;;;;;;0.50;0.50;;;;;;;20.91;91.72;95593.91;4358039;32;20233;-67
2023/08/14 06:24:49;;;;;;;0.40;0.40;;;;;;;20.97;92.12;95591.72;4351398;32;20185;-67
2023/08/14 06:27:14;;;;;;;0.60;0.60;;;;;;;21.03;92.38;95596.47;4364092;32;20189;-67
2023/08/14 06:29:39;;;;;;;0.73;0.73;;;;;;;21.06;91.27;95589.59;4359245;32;20256;-67
2023/08/14 06:32:05;;;;;;;0.70;0.70;;;;;;;21.09;90.27;95578.88;4342547;32;20213;-67
2023/08/14 06:34:31;;;;;;;0.40;0.40;;;;;;;21.09;90.80;95578.09;4329496;32;20247;-67
2023/08/14 06:36:56;;;;;;;0.40;0.40;;;;;;;21.10;90.66;95583.13;4341174;32;20185;-67
2023/08/14 06:39:21;;;;;;;0.67;0.67;;;;;;;21.17;90.35;95582.50;4340046;32;20203;-66
2023/08/14 06:41:47;;;;;;;0.40;0.40;;;;;;;21.22;89.97;95584.94;4335948;32;20234;-67
2023/08/14 06:44:12;;;;;;;0.97;0.60;;;;;;;21.37;90.90;95588.72;4346474;32;20209;-67
2023/08/14 06:46:38;;;;;;;0.40;0.40;;;;;;;21.55;90.62;95587.94;4349893;32;20192;-67
2023/08/14 06:49:04;;;;;;;0.37;0.37;;;;;;;21.64;90.33;95590.41;4341071;32;20251;-67
2023/08/14 06:51:29;;;;;;;0.47;0.47;;;;;;;21.65;89.77;95591.19;4337438;32;20185;-67
2023/08/14 06:53:54;;;;;;;0.90;0.90;;;;;;;21.59;90.02;95590.72;4351876;32;20260;-67
2023/08/14 06:56:20;;;;;;;0.40;0.33;;;;;;;21.59;90.47;95575.28;4331100;32;20185;-63
2023/08/14 06:58:45;;;;;;;7.50;2.60;;;;;;;21.58;90.93;95589.13;4343500;32;20239;-67
2023/08/14 07:01:11;;;;;;;1.87;1.60;;;;;;;21.61;91.14;95585.72;4345111;32;20248;-67
2023/08/14 07:03:36;;;;;;;2.30;2.10;;;;;;;21.59;90.75;95575.28;4336376;32;20199;-67
2023/08/14 07:06:02;;;;;;;27.00;17.83;;;;;;;21.62;90.39;95576.47;4338449;32;20243;-67
2023/08/14 07:08:28;;;;;;;8.27;7.50;;;;;;;21.59;89.96;95580.69;4342002;32;20197;-67
2023/08/14 07:10:53;;;;;;;4.00;3.63;;;;;;;21.60;90.22;95584.16;4339999;32;20240;-66
2023/08/14 07:13:19;;;;;;;6.27;5.80;;;;;;;21.64;90.50;95582.28;4333449;32;20247;-67
2023/08/14 07:15:47;;;;;;;6.17;5.67;;;;;;;21.67;90.33;95576.19;4337247;32;20200;-67
2023/08/14 07:18:14;;;;;;;2.10;2.00;;;;;;;21.69;90.25;95587.41;4343458;32;20188;-67
2023/08/14 07:20:39;;;;;;;1.40;1.30;;;;;;;21.74;90.30;95576.31;4339885;32;20243;-67
2023/08/14 07:23:05;;;;;;;4.87;4.57;;;;;;;21.78;90.19;95579.87;4330074;32;20197;-67
2023/08/14 07:25:31;;;;;;;13.57;10.33;;;;;;;21.89;89.40;95571.94;4352171;32;20250;-67
2023/08/14 07:27:56;;;;;;;15.67;13.63;;;;;;;22.01;88.58;95576.44;4334673;32;20212;-67
2023/08/14 07:30:22;;;;;;;4.23;3.93;;;;;;;22.09;88.49;95573.47;4354100;32;20215;-66
2023/08/14 07:32:48;;;;;;;1.47;1.30;;;;;;;22.17;89.13;95566.28;4357119;32;20250;-67
2023/08/14 07:35:13;;;;;;;1.07;0.77;;;;;;;22.17;88.71;95574.41;4350284;32;20228;-68
2023/08/14 07:37:38;;;;;;;0.50;0.50;;;;;;;22.25;88.36;95576.06;4336606;32;20192;-67
2023/08/14 07:40:06;;;;;;;0.30;0.30;;;;;;;22.31;88.02;95571.91;4343039;32;20255;-67
2023/08/14 07:42:31;;;;;;;0.80;0.80;;;;;;;22.32;88.26;95578.09;4343401;32;20243;-67
2023/08/14 07:44:57;;;;;;;0.23;0.23;;;;;;;22.32;87.27;95572.69;4345867;32;20185;-67
2023/08/14 07:47:23;;;;;;;0.80;0.80;;;;;;;22.34;87.22;95568.50;4337342;32;20181;-66
2023/08/14 07:49:48;;;;;;;0.53;0.53;;;;;;;22.36;87.62;95568.13;4351771;32;20197;-67
2023/08/14 07:52:14;;;;;;;0.30;0.30;;;;;;;22.44;88.61;95567.88;4352497;32;20256;-67
2023/08/14 07:54:39;;;;;;;0.40;0.40;;;;;;;22.50;87.52;95563.72;4355915;32;20196;-67
2023/08/14 07:57:04;;;;;;;0.30;0.30;;;;;;;22.56;86.59;95566.91;4333900;32;20181;-67
2023/08/14 07:59:30;;;;;;;0.30;0.30;;;;;;;22.58;86.24;95576.22;4331845;32;20237;-67
2023/08/14 08:01:55;;;;;;;0.27;0.27;;;;;;;22.67;86.06;95577.84;4353712;32;20181;-67
2023/08/14 08:04:20;;;;;;;0.33;0.33;;;;;;;22.73;86.20;95576.41;4334350;32;20181;-66
2023/08/14 08:06:46;;;;;;;1.17;0.67;;;;;;;22.78;85.64;95581.53;4352072;32;20287;-67
2023/08/14 08:09:12;;;;;;;0.33;0.33;;;;;;;22.84;85.22;95582.81;4340546;32;20182;-67
2023/08/14 08:11:37;;;;;;;0.23;0.23;;;;;;;22.84;82.49;95582.81;4333565;32;20178;-67
2023/08/14 08:14:05;;;;;;;0.40;0.40;;;;;;;22.81;82.20;95583.53;4357370;32;20211;-68
2023/08/14 08:16:34;;;;;;;0.17;0.17;;;;;;;22.78;83.39;95578.84;4343745;32;20186;-67
2023/08/14 08:19:09;;;;;;;0.00;0.00;;;;;;;22.73;82.27;95585.31;4346280;32;20230;-67
2023/08/14 08:21:34;;;;;;;0.30;0.30;;;;;;;22.75;82.88;95574.91;4335484;32;20224;-67
2023/08/14 08:23:59;;;;;;;3.60;1.03;;;;;;;22.77;80.38;95574.53;4341200;32;20195;-66
2023/08/14 08:26:25;;;;;;;0.53;0.53;;;;;;;22.76;81.98;95571.06;4343727;32;20180;-66
2023/08/14 08:28:50;;;;;;;1.03;0.80;;;;;;;22.81;81.57;95575.41;4333888;32;20182;-66
2023/08/14 08:31:16;;;;;;;1.20;1.20;;;;;;;22.80;81.80;95568.44;4351712;32;20216;-67
2023/08/14 08:33:41;;;;;;;0.53;0.53;;;;;;;22.80;82.14;95569.22;4342602;32;20212;-67
2023/08/14 08:36:06;;;;;;;0.43;0.43;;;;;;;22.86;82.59;95575.09;4346606;32;20189;-68
2023/08/14 08:38:32;;;;;;;0.63;0.63;;;;;;;22.88;83.03;95570.84;4346677;32;20193;-68
2023/08/14 08:41:01;;;;;;;0.60;0.60;;;;;;;22.95;82.54;95564.78;4345707;32;20194;-67
2023/08/14 08:43:27;;;;;;;0.30;0.30;;;;;;;23.08;80.39;95559.91;4346639;32;20207;-67
2023/08/14 08:45:57;;;;;;;1.40;1.40;;;;;;;23.26;81.03;95561.69;4346363;32;20192;-66
2023/08/14 08:48:23;;;;;;;3.33;3.03;;;;;;;23.29;81.46;95555.53;4338896;32;20193;-67
2023/08/14 08:50:50;;;;;;;2.00;1.03;;;;;;;23.47;79.41;95555.75;4328585;32;20201;-67
2023/08/14 08:53:21;;;;;;;3.43;3.17;;;;;;;23.64;78.16;95554.41;4340804;32;20193;-67
2023/08/14 08:55:47;;;;;;;5.13;3.83;;;;;;;23.67;78.74;95556.38;4328445;32;20188;-67
2023/08/14 08:58:16;;;;;;;20.83;3.27;;;;;;;23.71;79.25;95548.28;4329168;32;20248;-67
2023/08/14 09:00:43;;;;;;;2.00;1.47;;;;;;;23.79;78.62;95544.50;4348214;32;20260;-68
2023/08/14 09:03:09;;;;;;;1.73;1.63;;;;;;;23.94;76.08;95540.75;4331282;32;20189;-67
2023/08/14 09:05:36;;;;;;;0.60;0.60;;;;;;;23.95;78.18;95542.31;4340255;32;20270;-67
2023/08/14 09:08:01;;;;;;;2.67;2.47;;;;;;;23.95;79.55;95542.31;4335244;32;20198;-67
2023/08/14 09:10:27;;;;;;;0.73;0.73;;;;;;;23.97;79.10;95550.84;4343896;32;20190;-68
2023/08/14 09:12:55;;;;;;;4.60;4.30;;;;;;;23.94;78.87;95546.19;4351131;32;20185;-68
2023/08/14 09:15:23;;;;;;;2.47;2.33;;;;;;;23.96;80.78;95546.59;4342099;32;20243;-66
2023/08/14 09:17:50;;;;;;;3.50;3.20;;;;;;;23.96;79.29;95555.50;4337476;32;20211;-68
2023/08/14 09:20:16;;;;;;;4.77;4.43;;;;;;;23.99;79.27;95556.69;4339001;32;20244;-68
2023/08/14 09:22:41;;;;;;;2.00;1.90;;;;;;;24.10;79.07;95563.00;4336979;32;20258;-68
2023/08/14 09:25:07;;;;;;;11.97;7.47;;;;;;;24.19;78.09;95551.81;4345215;32;20197;-68
2023/08/14 09:27:33;;;;;;;1.43;1.43;;;;;;;24.34;76.63;95558.94;4347394;32;20207;-68
2023/08/14 09:29:58;;;;;;;0.77;0.77;;;;;;;24.39;76.55;95545.03;4345341;32;20201;-68
2023/08/14 09:32:24;;;;;;;0.83;0.83;;;;;;;24.45;75.98;95548.97;4355401;32;20239;-67
2023/08/14 09:34:59;;;;;;;0.50;0.50;;;;;;;24.54;76.83;95538.53;4353463;32;20246;-68
2023/08/14 09:37:25;;;;;;;0.47;0.47;;;;;;;24.62;75.63;95534.72;4367334;32;20246;-67
2023/08/14 09:40:17;;;;;;;0.40;0.40;;;;;;;24.67;75.88;95534.37;4334896;32;20177;-68
2023/08/14 09:42:48;;;;;;;0.30;0.30;;;;;;;24.95;72.27;95543.84;4340346;32;20232;-68
2023/08/14 09:45:15;;;;;;;0.70;0.70;;;;;;;24.99;71.61;95542.72;4346068;32;20206;-67
2023/08/14 09:47:42;;;;;;;0.57;0.57;;;;;;;24.91;71.07;95532.97;4349138;32;20291;-67
2023/08/14 09:50:08;;;;;;;0.50;0.50;;;;;;;24.87;71.34;95534.87;4340539;32;20251;-68
2023/08/14 09:52:34;;;;;;;0.47;0.47;;;;;;;25.03;70.86;95531.88;4348012;32;20188;-67
2023/08/14 09:55:01;;;;;;;0.47;0.47;;;;;;;25.09;70.70;95522.22;4336590;32;20208;-67
2023/08/14 09:57:26;;;;;;;0.57;0.57;;;;;;;25.28;70.84;95512.97;4337954;32;20268;-67
2023/08/14 09:59:52;;;;;;;0.40;0.40;;;;;;;25.23;71.09;95502.47;4345110;32;20193;-67
2023/08/14 10:02:22;;;;;;;0.50;0.50;;;;;;;25.31;69.34;95502.13;4338637;32;20201;-67
2023/08/14 10:04:49;;;;;;;2.13;0.87;;;;;;;25.51;67.70;95509.94;4332226;32;20197;-68
2023/08/14 10:07:16;;;;;;;0.50;0.50;;;;;;;25.49;67.87;95506.84;4351927;32;20186;-68
2023/08/14 10:09:55;;;;;;;0.40;0.40;;;;;;;25.52;68.31;95503.34;4331444;32;21571;-68
2023/08/14 10:12:28;;;;;;;0.40;0.40;;;;;;;25.65;66.94;95504.56;4332598;32;20201;-68
2023/08/14 10:15:01;;;;;;;2.00;0.20;;;;;;;25.57;66.22;95498.28;4326475;32;20228;-68
2023/08/14 10:17:32;;;;;;;0.30;0.30;;;;;;;25.55;65.11;95499.88;4334493;32;20193;-68
2023/08/14 10:20:03;;;;;;;0.50;0.50;;;;;;;25.55;64.50;95499.88;4365826;32;20215;-68
2023/08/14 10:22:28;;;;;;;0.30;0.30;;;;;;;25.56;63.77;95496.75;4359721;32;20193;-67
2023/08/14 10:24:54;;;;;;;0.50;0.50;;;;;;;25.61;63.26;95498.31;4356871;32;20237;-67
2023/08/14 10:27:21;;;;;;;0.37;0.37;;;;;;;25.63;63.15;95490.56;4339260;32;20204;-68
2023/08/14 10:29:49;;;;;;;0.57;0.57;;;;;;;25.81;61.40;95490.59;4334778;32;20200;-68
2023/08/14 10:32:14;;;;;;;0.40;0.40;;;;;;;25.92;60.38;95492.19;4344994;32;20264;-68
2023/08/14 10:34:41;;;;;;;0.87;0.87;;;;;;;25.92;62.42;95492.19;4350119;32;20256;-68
2023/08/14 10:37:06;;;;;;;0.50;0.50;;;;;;;25.88;64.55;95490.63;4353664;32;20197;-68
2023/08/14 10:39:35;;;;;;;0.70;0.70;;;;;;;26.06;62.17;95496.06;4321155;32;20189;-67
2023/08/14 10:42:04;;;;;;;0.50;0.50;;;;;;;26.05;61.81;95489.84;4328530;32;20199;-68
2023/08/14 10:44:37;;;;;;;0.83;0.83;;;;;;;26.14;61.77;95492.97;4335942;32;20196;-67
2023/08/14 10:47:07;;;;;;;0.50;0.50;;;;;;;26.18;63.40;95492.97;4353138;32;20185;-67
2023/08/14 10:49:45;;;;;;;0.50;0.50;;;;;;;26.31;63.18;95485.97;4336365;32;20247;-67
2023/08/14 10:52:15;;;;;;;0.43;0.43;;;;;;;26.50;62.29;95480.13;4342218;32;20276;-67
2023/08/14 10:54:44;;;;;;;1.50;1.40;;;;;;;26.56;61.59;95480.50;4330966;32;20380;-67
2023/08/14 10:57:13;;;;;;;0.57;0.57;;;;;;;26.54;61.78;95472.72;4329260;32;20249;-67
2023/08/14 10:59:40;;;;;;;0.70;0.70;;;;;;;26.70;61.17;95470.34;4345238;32;20211;-67
2023/08/14 11:02:08;;;;;;;0.73;0.73;;;;;;;26.64;61.68;95471.91;4345167;32;20209;-67
2023/08/14 11:04:36;;;;;;;0.40;0.40;;;;;;;26.65;62.34;95470.72;4330903;32;20235;-68
2023/08/14 11:07:05;;;;;;;0.30;0.30;;;;;;;26.88;62.89;95472.22;4345449;32;20247;-67
2023/08/14 11:09:33;;;;;;;0.67;0.67;;;;;;;27.02;62.91;95470.25;4338811;32;20198;-67
2023/08/14 11:12:03;;;;;;;0.17;0.17;;;;;;;27.24;61.65;95460.03;4331816;32;20217;-67
2023/08/14 11:14:29;;;;;;;2.13;1.07;;;;;;;27.19;61.70;95460.47;4348733;32;20180;-67
2023/08/14 11:16:55;;;;;;;0.77;0.77;;;;;;;27.10;62.01;95460.09;4356153;32;20224;-67
2023/08/14 11:19:21;;;;;;;0.50;0.50;;;;;;;26.98;61.70;95464.06;4347780;32;20177;-64
2023/08/14 11:21:50;;;;;;;0.40;0.40;;;;;;;26.93;62.42;95472.59;4344060;32;20242;-67
2023/08/14 11:24:15;;;;;;;0.60;0.60;;;;;;;26.86;61.97;95461.72;4335591;32;20252;-67
2023/08/14 11:26:40;;;;;;;0.43;0.43;;;;;;;27.12;61.52;95463.22;4342477;32;20279;-68
2023/08/14 11:29:10;;;;;;;0.43;0.43;;;;;;;27.22;61.49;95467.84;4347609;32;20241;-67
2023/08/14 11:31:36;;;;;;;0.53;0.53;;;;;;;27.22;60.66;95461.62;4347873;32;20235;-67